Dallas Love Field
KDAL : rendu visible

Aérodrome :











RETROUVEZ-NOUS SUR...

 
LOGIN :

S'inscrire | Disclaimer

   EN    FR    IT 

 









Légende :    VFR   VFR Marginal   IFR   IFR Intensif   IFR Très Intensif
Visi : 
Plafond : 
>= 8 km
>= 3000ft
5 à 8 km
1000 à 3000 ft
1500m à 5 km
500 à 1000 ft
800 à 1500m
200 à 500 ft
< 800m
< 200 ft
Symboles :   Orages  Brouillard  Fortes neiges  Fortes précipitations  Vent > 20 kt







- Altitude de l'aérodrome : 487 ft
- Code IATA : DAL


KDAL - Dallas Love Field

DERNIER METAR :
  • 201853Z 19010G20KT 10SM CLR 34/24 A2975 RMK AO2 SLP065 T03440239

METARs EXPIRÉS :
  • 201753Z 20011KT 10SM CLR 34/23 A2976 RMK AO2 SLP070 T03390233 10339 20250 58012
  • 201653Z 19010KT 160V230 10SM CLR 32/22 A2977 RMK AO2 SLP073 T03220222

TAF KDAL
Valide du 20 à 18h jusqu'au 21 à 18h UTC


201722Z 2018/2118 18016KT P6SM FEW250
FM211200 17015G25KT P6SM SCT050 SCT150
FIR KZFW / Amérique du Nord



MET'MAP, la Météo Aéronautique d'un coup d'oeil ! - Copyright ORBIFLY Décembre 2007 - Disclaimer

ORBIFLY MET'MAP TEAM :

Programmation & Développement : Alexandra Zaïnal
Conception & Développement : Baudouin d'Aumeries
Co-Programmation & Développement : Marc-Olivier Méhu
Soutien technique & logistique : Manuel Goepfert

Contact : metmap@orbifly.com




SOURCES & CREDITS :

   NOAA       Earth
Advisory